sensor_id;sensor_type;location;lat;lon;timestamp;P1;durP1;ratioP1;P2;durP2;ratioP2
5032;SDS011;2535;49.888;8.942;2023-06-22T00:00:31;45.43;;;3.10;;
5032;SDS011;2535;49.888;8.942;2023-06-22T00:02:57;43.70;;;2.17;;
5032;SDS011;2535;49.888;8.942;2023-06-22T00:05:23;44.63;;;2.80;;
5032;SDS011;2535;49.888;8.942;2023-06-22T00:07:49;45.60;;;2.47;;
5032;SDS011;2535;49.888;8.942;2023-06-22T00:10:15;47.47;;;4.27;;
5032;SDS011;2535;49.888;8.942;2023-06-22T00:12:41;44.60;;;2.37;;
5032;SDS011;2535;49.888;8.942;2023-06-22T00:15:07;46.13;;;2.70;;
5032;SDS011;2535;49.888;8.942;2023-06-22T00:17:33;45.53;;;2.93;;
5032;SDS011;2535;49.888;8.942;2023-06-22T00:19:59;45.03;;;1.80;;
5032;SDS011;2535;49.888;8.942;2023-06-22T00:22:25;49.00;;;2.90;;
5032;SDS011;2535;49.888;8.942;2023-06-22T00:24:53;46.60;;;3.03;;
5032;SDS011;2535;49.888;8.942;2023-06-22T00:27:19;44.73;;;2.57;;
5032;SDS011;2535;49.888;8.942;2023-06-22T00:29:45;45.20;;;3.03;;
5032;SDS011;2535;49.888;8.942;2023-06-22T00:32:11;45.90;;;2.80;;
5032;SDS011;2535;49.888;8.942;2023-06-22T00:34:37;46.50;;;2.73;;
5032;SDS011;2535;49.888;8.942;2023-06-22T00:37:03;45.07;;;2.33;;
5032;SDS011;2535;49.888;8.942;2023-06-22T00:39:29;44.80;;;2.67;;
5032;SDS011;2535;49.888;8.942;2023-06-22T00:41:58;46.30;;;2.80;;
5032;SDS011;2535;49.888;8.942;2023-06-22T00:44:24;52.43;;;3.90;;
5032;SDS011;2535;49.888;8.942;2023-06-22T00:46:50;44.53;;;2.93;;
5032;SDS011;2535;49.888;8.942;2023-06-22T00:49:16;48.10;;;3.20;;
5032;SDS011;2535;49.888;8.942;2023-06-22T00:51:42;47.20;;;2.73;;
5032;SDS011;2535;49.888;8.942;2023-06-22T00:54:10;46.00;;;3.03;;
5032;SDS011;2535;49.888;8.942;2023-06-22T00:56:38;48.77;;;3.60;;
5032;SDS011;2535;49.888;8.942;2023-06-22T00:59:04;47.77;;;3.47;;
5032;SDS011;2535;49.888;8.942;2023-06-22T01:01:30;46.97;;;3.57;;
5032;SDS011;2535;49.888;8.942;2023-06-22T01:03:57;47.07;;;3.20;;
5032;SDS011;2535;49.888;8.942;2023-06-22T01:06:26;48.13;;;2.93;;
5032;SDS011;2535;49.888;8.942;2023-06-22T01:08:59;47.20;;;3.30;;
5032;SDS011;2535;49.888;8.942;2023-06-22T01:11:32;52.13;;;2.77;;
5032;SDS011;2535;49.888;8.942;2023-06-22T01:16:30;49.53;;;3.00;;
5032;SDS011;2535;49.888;8.942;2023-06-22T01:18:57;48.00;;;2.90;;
5032;SDS011;2535;49.888;8.942;2023-06-22T01:21:28;47.47;;;2.47;;
5032;SDS011;2535;49.888;8.942;2023-06-22T01:26:54;49.37;;;2.60;;
5032;SDS011;2535;49.888;8.942;2023-06-22T01:29:23;50.30;;;3.70;;
5032;SDS011;2535;49.888;8.942;2023-06-22T01:31:50;51.17;;;3.90;;
5032;SDS011;2535;49.888;8.942;2023-06-22T01:34:16;49.77;;;3.27;;
5032;SDS011;2535;49.888;8.942;2023-06-22T01:36:43;54.80;;;3.17;;
5032;SDS011;2535;49.888;8.942;2023-06-22T01:39:09;49.90;;;3.00;;
5032;SDS011;2535;49.888;8.942;2023-06-22T01:41:37;53.50;;;3.90;;
5032;SDS011;2535;49.888;8.942;2023-06-22T01:44:07;50.40;;;2.80;;
5032;SDS011;2535;49.888;8.942;2023-06-22T01:46:34;56.07;;;5.23;;
5032;SDS011;2535;49.888;8.942;2023-06-22T01:49:01;50.40;;;2.87;;
5032;SDS011;2535;49.888;8.942;2023-06-22T01:51:27;52.23;;;4.00;;
5032;SDS011;2535;49.888;8.942;2023-06-22T01:53:53;53.93;;;3.90;;
5032;SDS011;2535;49.888;8.942;2023-06-22T01:56:19;51.17;;;2.60;;
5032;SDS011;2535;49.888;8.942;2023-06-22T01:58:50;52.60;;;3.67;;
5032;SDS011;2535;49.888;8.942;2023-06-22T02:01:20;52.33;;;2.63;;
5032;SDS011;2535;49.888;8.942;2023-06-22T02:03:58;54.60;;;2.80;;
5032;SDS011;2535;49.888;8.942;2023-06-22T02:06:29;56.17;;;3.50;;
5032;SDS011;2535;49.888;8.942;2023-06-22T02:09:00;54.67;;;3.80;;
5032;SDS011;2535;49.888;8.942;2023-06-22T02:11:27;60.90;;;4.97;;
5032;SDS011;2535;49.888;8.942;2023-06-22T02:13:54;54.47;;;3.13;;
5032;SDS011;2535;49.888;8.942;2023-06-22T02:16:21;56.90;;;4.83;;
5032;SDS011;2535;49.888;8.942;2023-06-22T02:18:48;59.20;;;3.33;;
5032;SDS011;2535;49.888;8.942;2023-06-22T02:21:17;58.53;;;4.63;;
5032;SDS011;2535;49.888;8.942;2023-06-22T02:23:43;55.90;;;3.73;;
5032;SDS011;2535;49.888;8.942;2023-06-22T02:26:09;56.67;;;4.17;;
5032;SDS011;2535;49.888;8.942;2023-06-22T02:28:35;57.80;;;4.30;;
5032;SDS011;2535;49.888;8.942;2023-06-22T02:31:01;55.57;;;3.70;;
5032;SDS011;2535;49.888;8.942;2023-06-22T02:33:27;57.70;;;3.77;;
5032;SDS011;2535;49.888;8.942;2023-06-22T02:35:53;59.37;;;5.30;;
5032;SDS011;2535;49.888;8.942;2023-06-22T02:38:19;57.27;;;3.57;;
5032;SDS011;2535;49.888;8.942;2023-06-22T02:40:45;58.53;;;4.23;;
5032;SDS011;2535;49.888;8.942;2023-06-22T02:43:12;58.17;;;4.73;;
5032;SDS011;2535;49.888;8.942;2023-06-22T02:45:38;57.00;;;3.97;;
5032;SDS011;2535;49.888;8.942;2023-06-22T02:48:04;55.90;;;3.50;;
5032;SDS011;2535;49.888;8.942;2023-06-22T02:50:30;54.70;;;3.50;;
5032;SDS011;2535;49.888;8.942;2023-06-22T02:52:56;54.90;;;3.43;;
5032;SDS011;2535;49.888;8.942;2023-06-22T02:55:23;59.90;;;4.80;;
5032;SDS011;2535;49.888;8.942;2023-06-22T02:57:49;59.53;;;4.73;;
5032;SDS011;2535;49.888;8.942;2023-06-22T03:00:17;54.87;;;3.30;;
5032;SDS011;2535;49.888;8.942;2023-06-22T03:02:43;56.17;;;4.50;;
5032;SDS011;2535;49.888;8.942;2023-06-22T03:05:10;60.80;;;3.47;;
5032;SDS011;2535;49.888;8.942;2023-06-22T03:07:38;56.00;;;3.57;;
5032;SDS011;2535;49.888;8.942;2023-06-22T03:10:04;54.63;;;3.27;;
5032;SDS011;2535;49.888;8.942;2023-06-22T03:12:30;55.17;;;4.33;;
5032;SDS011;2535;49.888;8.942;2023-06-22T03:14:56;61.03;;;4.70;;
5032;SDS011;2535;49.888;8.942;2023-06-22T03:17:23;55.20;;;3.67;;
5032;SDS011;2535;49.888;8.942;2023-06-22T03:19:49;53.87;;;3.60;;
5032;SDS011;2535;49.888;8.942;2023-06-22T03:22:15;55.70;;;3.40;;
5032;SDS011;2535;49.888;8.942;2023-06-22T03:24:41;57.10;;;3.63;;
5032;SDS011;2535;49.888;8.942;2023-06-22T03:27:07;56.47;;;4.00;;
5032;SDS011;2535;49.888;8.942;2023-06-22T03:29:33;52.50;;;2.87;;
5032;SDS011;2535;49.888;8.942;2023-06-22T03:31:59;54.77;;;3.87;;
5032;SDS011;2535;49.888;8.942;2023-06-22T03:34:25;51.90;;;2.77;;
5032;SDS011;2535;49.888;8.942;2023-06-22T03:36:51;53.57;;;3.77;;
5032;SDS011;2535;49.888;8.942;2023-06-22T03:39:17;55.90;;;3.93;;
5032;SDS011;2535;49.888;8.942;2023-06-22T03:41:43;56.73;;;3.93;;
5032;SDS011;2535;49.888;8.942;2023-06-22T03:44:09;53.13;;;3.30;;
5032;SDS011;2535;49.888;8.942;2023-06-22T03:46:37;54.57;;;3.97;;
5032;SDS011;2535;49.888;8.942;2023-06-22T03:49:03;53.97;;;3.07;;
5032;SDS011;2535;49.888;8.942;2023-06-22T03:51:30;53.37;;;3.33;;
5032;SDS011;2535;49.888;8.942;2023-06-22T03:53:56;55.07;;;4.83;;
5032;SDS011;2535;49.888;8.942;2023-06-22T03:56:22;52.50;;;3.83;;
5032;SDS011;2535;49.888;8.942;2023-06-22T03:58:48;51.83;;;2.93;;
5032;SDS011;2535;49.888;8.942;2023-06-22T04:01:14;63.00;;;3.63;;
5032;SDS011;2535;49.888;8.942;2023-06-22T04:03:42;58.80;;;4.83;;
5032;SDS011;2535;49.888;8.942;2023-06-22T04:06:08;53.87;;;3.97;;
5032;SDS011;2535;49.888;8.942;2023-06-22T04:08:34;55.53;;;3.90;;
5032;SDS011;2535;49.888;8.942;2023-06-22T04:11:00;51.87;;;3.07;;
5032;SDS011;2535;49.888;8.942;2023-06-22T04:13:26;52.27;;;3.70;;
5032;SDS011;2535;49.888;8.942;2023-06-22T04:15:52;52.00;;;3.40;;
5032;SDS011;2535;49.888;8.942;2023-06-22T04:18:18;53.37;;;3.57;;
5032;SDS011;2535;49.888;8.942;2023-06-22T04:20:44;53.60;;;3.20;;
5032;SDS011;2535;49.888;8.942;2023-06-22T04:23:11;56.03;;;4.70;;
5032;SDS011;2535;49.888;8.942;2023-06-22T04:25:38;56.90;;;4.43;;
5032;SDS011;2535;49.888;8.942;2023-06-22T04:28:04;54.33;;;3.60;;
5032;SDS011;2535;49.888;8.942;2023-06-22T04:30:32;52.23;;;2.97;;
5032;SDS011;2535;49.888;8.942;2023-06-22T04:32:58;56.10;;;5.10;;
5032;SDS011;2535;49.888;8.942;2023-06-22T04:35:25;51.80;;;3.53;;
5032;SDS011;2535;49.888;8.942;2023-06-22T04:37:52;59.50;;;3.93;;
5032;SDS011;2535;49.888;8.942;2023-06-22T04:40:20;56.60;;;3.90;;
5032;SDS011;2535;49.888;8.942;2023-06-22T04:42:46;52.40;;;3.57;;
5032;SDS011;2535;49.888;8.942;2023-06-22T04:45:17;50.87;;;2.63;;
5032;SDS011;2535;49.888;8.942;2023-06-22T04:47:43;55.53;;;4.30;;
5032;SDS011;2535;49.888;8.942;2023-06-22T04:50:10;54.57;;;4.07;;
5032;SDS011;2535;49.888;8.942;2023-06-22T04:52:36;49.93;;;3.23;;
5032;SDS011;2535;49.888;8.942;2023-06-22T04:55:02;52.70;;;3.80;;
5032;SDS011;2535;49.888;8.942;2023-06-22T04:57:28;53.47;;;3.50;;
5032;SDS011;2535;49.888;8.942;2023-06-22T04:59:58;52.00;;;3.70;;
5032;SDS011;2535;49.888;8.942;2023-06-22T05:02:36;52.20;;;3.70;;
5032;SDS011;2535;49.888;8.942;2023-06-22T05:05:02;50.43;;;2.83;;
5032;SDS011;2535;49.888;8.942;2023-06-22T05:07:32;50.80;;;3.00;;
5032;SDS011;2535;49.888;8.942;2023-06-22T05:09:58;51.77;;;3.30;;
5032;SDS011;2535;49.888;8.942;2023-06-22T05:12:24;52.10;;;3.20;;
5032;SDS011;2535;49.888;8.942;2023-06-22T05:14:50;56.83;;;4.40;;
5032;SDS011;2535;49.888;8.942;2023-06-22T05:17:15;51.27;;;3.77;;
5032;SDS011;2535;49.888;8.942;2023-06-22T05:19:44;51.67;;;3.50;;
5032;SDS011;2535;49.888;8.942;2023-06-22T05:22:14;53.50;;;4.50;;
5032;SDS011;2535;49.888;8.942;2023-06-22T05:24:41;50.90;;;2.90;;
5032;SDS011;2535;49.888;8.942;2023-06-22T05:27:07;52.57;;;3.67;;
5032;SDS011;2535;49.888;8.942;2023-06-22T05:29:33;56.37;;;4.67;;
5032;SDS011;2535;49.888;8.942;2023-06-22T05:32:00;56.57;;;4.13;;
5032;SDS011;2535;49.888;8.942;2023-06-22T05:34:26;55.97;;;4.13;;
5032;SDS011;2535;49.888;8.942;2023-06-22T05:36:52;49.33;;;2.60;;
5032;SDS011;2535;49.888;8.942;2023-06-22T05:39:18;51.20;;;3.13;;
5032;SDS011;2535;49.888;8.942;2023-06-22T05:41:45;52.17;;;4.10;;
5032;SDS011;2535;49.888;8.942;2023-06-22T05:44:11;54.90;;;3.80;;
5032;SDS011;2535;49.888;8.942;2023-06-22T05:46:39;52.57;;;3.47;;
5032;SDS011;2535;49.888;8.942;2023-06-22T05:49:05;56.40;;;4.30;;
5032;SDS011;2535;49.888;8.942;2023-06-22T05:51:31;51.80;;;4.03;;
5032;SDS011;2535;49.888;8.942;2023-06-22T05:53:57;55.00;;;4.50;;
5032;SDS011;2535;49.888;8.942;2023-06-22T05:56:23;57.50;;;4.80;;
5032;SDS011;2535;49.888;8.942;2023-06-22T05:58:49;54.77;;;4.60;;
5032;SDS011;2535;49.888;8.942;2023-06-22T06:01:15;54.93;;;5.73;;
5032;SDS011;2535;49.888;8.942;2023-06-22T06:03:41;50.70;;;3.43;;
5032;SDS011;2535;49.888;8.942;2023-06-22T06:06:07;53.03;;;4.20;;
5032;SDS011;2535;49.888;8.942;2023-06-22T06:08:33;51.00;;;3.63;;
5032;SDS011;2535;49.888;8.942;2023-06-22T06:10:59;52.27;;;3.80;;
5032;SDS011;2535;49.888;8.942;2023-06-22T06:13:25;51.80;;;3.60;;
5032;SDS011;2535;49.888;8.942;2023-06-22T06:15:51;51.80;;;3.97;;
5032;SDS011;2535;49.888;8.942;2023-06-22T06:18:19;50.97;;;3.80;;
5032;SDS011;2535;49.888;8.942;2023-06-22T06:20:45;51.70;;;4.33;;
5032;SDS011;2535;49.888;8.942;2023-06-22T06:23:11;50.10;;;3.83;;
5032;SDS011;2535;49.888;8.942;2023-06-22T06:25:38;49.27;;;3.17;;
5032;SDS011;2535;49.888;8.942;2023-06-22T06:28:03;50.97;;;3.40;;
5032;SDS011;2535;49.888;8.942;2023-06-22T06:30:30;51.37;;;4.00;;
5032;SDS011;2535;49.888;8.942;2023-06-22T06:32:56;49.70;;;3.87;;
5032;SDS011;2535;49.888;8.942;2023-06-22T06:35:22;50.40;;;3.23;;
5032;SDS011;2535;49.888;8.942;2023-06-22T06:37:49;56.20;;;3.67;;
5032;SDS011;2535;49.888;8.942;2023-06-22T06:40:15;51.00;;;3.00;;
5032;SDS011;2535;49.888;8.942;2023-06-22T06:42:48;50.07;;;4.00;;
5032;SDS011;2535;49.888;8.942;2023-06-22T06:45:21;51.07;;;2.80;;
5032;SDS011;2535;49.888;8.942;2023-06-22T06:47:48;52.20;;;2.93;;
5032;SDS011;2535;49.888;8.942;2023-06-22T06:50:14;50.23;;;3.50;;
5032;SDS011;2535;49.888;8.942;2023-06-22T06:52:40;49.20;;;3.17;;
5032;SDS011;2535;49.888;8.942;2023-06-22T06:55:06;49.73;;;3.90;;
5032;SDS011;2535;49.888;8.942;2023-06-22T06:57:33;47.30;;;2.93;;
5032;SDS011;2535;49.888;8.942;2023-06-22T06:59:59;48.07;;;2.97;;
5032;SDS011;2535;49.888;8.942;2023-06-22T07:02:25;46.77;;;2.60;;
5032;SDS011;2535;49.888;8.942;2023-06-22T07:04:55;48.20;;;3.50;;
5032;SDS011;2535;49.888;8.942;2023-06-22T07:07:21;49.17;;;3.87;;
5032;SDS011;2535;49.888;8.942;2023-06-22T07:09:47;47.47;;;3.00;;
5032;SDS011;2535;49.888;8.942;2023-06-22T07:12:12;47.87;;;2.83;;
5032;SDS011;2535;49.888;8.942;2023-06-22T07:14:39;47.60;;;3.17;;
5032;SDS011;2535;49.888;8.942;2023-06-22T07:17:05;49.43;;;3.70;;
5032;SDS011;2535;49.888;8.942;2023-06-22T07:19:32;46.70;;;3.07;;
5032;SDS011;2535;49.888;8.942;2023-06-22T07:21:58;47.13;;;2.97;;
5032;SDS011;2535;49.888;8.942;2023-06-22T07:24:24;48.87;;;4.10;;
5032;SDS011;2535;49.888;8.942;2023-06-22T07:26:50;46.00;;;2.50;;
5032;SDS011;2535;49.888;8.942;2023-06-22T07:29:17;47.67;;;4.23;;
5032;SDS011;2535;49.888;8.942;2023-06-22T07:31:43;46.80;;;4.03;;
5032;SDS011;2535;49.888;8.942;2023-06-22T07:34:09;46.73;;;3.00;;
5032;SDS011;2535;49.888;8.942;2023-06-22T07:36:35;48.00;;;4.00;;
5032;SDS011;2535;49.888;8.942;2023-06-22T07:39:04;47.43;;;3.07;;
5032;SDS011;2535;49.888;8.942;2023-06-22T07:41:31;45.90;;;3.30;;
5032;SDS011;2535;49.888;8.942;2023-06-22T07:43:57;47.97;;;3.93;;
5032;SDS011;2535;49.888;8.942;2023-06-22T07:46:23;46.80;;;3.90;;
5032;SDS011;2535;49.888;8.942;2023-06-22T07:48:49;45.83;;;3.50;;
5032;SDS011;2535;49.888;8.942;2023-06-22T07:51:15;45.97;;;4.40;;
5032;SDS011;2535;49.888;8.942;2023-06-22T07:53:41;46.90;;;3.80;;
5032;SDS011;2535;49.888;8.942;2023-06-22T07:56:10;47.60;;;3.83;;
5032;SDS011;2535;49.888;8.942;2023-06-22T07:58:35;44.87;;;3.07;;
5032;SDS011;2535;49.888;8.942;2023-06-22T08:01:01;45.80;;;3.60;;
5032;SDS011;2535;49.888;8.942;2023-06-22T08:03:28;47.30;;;3.07;;
5032;SDS011;2535;49.888;8.942;2023-06-22T08:05:54;44.83;;;2.90;;
5032;SDS011;2535;49.888;8.942;2023-06-22T08:08:20;46.13;;;3.37;;
5032;SDS011;2535;49.888;8.942;2023-06-22T08:10:46;46.43;;;4.10;;
5032;SDS011;2535;49.888;8.942;2023-06-22T08:13:13;46.90;;;4.63;;
5032;SDS011;2535;49.888;8.942;2023-06-22T08:15:39;46.30;;;3.70;;
5032;SDS011;2535;49.888;8.942;2023-06-22T08:18:05;44.57;;;2.77;;
5032;SDS011;2535;49.888;8.942;2023-06-22T08:20:31;47.07;;;3.43;;
5032;SDS011;2535;49.888;8.942;2023-06-22T08:22:57;43.67;;;2.40;;
5032;SDS011;2535;49.888;8.942;2023-06-22T08:25:30;45.27;;;3.20;;
5032;SDS011;2535;49.888;8.942;2023-06-22T08:27:56;46.10;;;3.63;;
5032;SDS011;2535;49.888;8.942;2023-06-22T08:30:22;45.27;;;3.97;;
5032;SDS011;2535;49.888;8.942;2023-06-22T08:32:48;50.47;;;3.80;;
5032;SDS011;2535;49.888;8.942;2023-06-22T08:35:14;44.70;;;3.27;;
5032;SDS011;2535;49.888;8.942;2023-06-22T08:37:40;43.70;;;3.17;;
5032;SDS011;2535;49.888;8.942;2023-06-22T08:40:07;42.80;;;2.47;;
5032;SDS011;2535;49.888;8.942;2023-06-22T08:42:34;43.00;;;3.10;;
5032;SDS011;2535;49.888;8.942;2023-06-22T08:45:00;46.60;;;3.50;;
5032;SDS011;2535;49.888;8.942;2023-06-22T08:47:27;44.60;;;3.33;;
5032;SDS011;2535;49.888;8.942;2023-06-22T08:49:53;44.57;;;3.30;;
5032;SDS011;2535;49.888;8.942;2023-06-22T08:52:19;43.80;;;3.80;;
5032;SDS011;2535;49.888;8.942;2023-06-22T08:54:46;43.40;;;3.43;;
5032;SDS011;2535;49.888;8.942;2023-06-22T08:57:12;51.33;;;3.60;;
5032;SDS011;2535;49.888;8.942;2023-06-22T08:59:38;44.33;;;3.77;;
5032;SDS011;2535;49.888;8.942;2023-06-22T09:02:05;42.40;;;3.03;;
5032;SDS011;2535;49.888;8.942;2023-06-22T09:04:31;42.30;;;2.80;;
5032;SDS011;2535;49.888;8.942;2023-06-22T09:07:00;42.70;;;3.33;;
5032;SDS011;2535;49.888;8.942;2023-06-22T09:09:26;42.50;;;3.20;;
5032;SDS011;2535;49.888;8.942;2023-06-22T09:11:52;41.50;;;2.80;;
5032;SDS011;2535;49.888;8.942;2023-06-22T09:14:18;41.90;;;3.13;;
5032;SDS011;2535;49.888;8.942;2023-06-22T09:16:44;43.77;;;3.57;;
5032;SDS011;2535;49.888;8.942;2023-06-22T09:19:10;41.43;;;2.77;;
5032;SDS011;2535;49.888;8.942;2023-06-22T09:21:36;42.37;;;2.83;;
5032;SDS011;2535;49.888;8.942;2023-06-22T09:24:02;40.70;;;2.73;;
5032;SDS011;2535;49.888;8.942;2023-06-22T09:26:28;41.77;;;3.57;;
5032;SDS011;2535;49.888;8.942;2023-06-22T09:28:54;40.80;;;2.53;;
5032;SDS011;2535;49.888;8.942;2023-06-22T09:31:20;41.40;;;3.03;;
5032;SDS011;2535;49.888;8.942;2023-06-22T09:33:53;40.37;;;2.47;;
5032;SDS011;2535;49.888;8.942;2023-06-22T09:36:19;40.93;;;2.97;;
5032;SDS011;2535;49.888;8.942;2023-06-22T09:38:45;42.80;;;2.93;;
5032;SDS011;2535;49.888;8.942;2023-06-22T09:41:11;44.33;;;3.60;;
5032;SDS011;2535;49.888;8.942;2023-06-22T09:43:37;42.90;;;3.30;;
5032;SDS011;2535;49.888;8.942;2023-06-22T09:46:03;41.70;;;3.53;;
5032;SDS011;2535;49.888;8.942;2023-06-22T09:48:29;41.37;;;4.03;;
5032;SDS011;2535;49.888;8.942;2023-06-22T09:50:55;39.53;;;2.40;;
5032;SDS011;2535;49.888;8.942;2023-06-22T09:53:22;38.83;;;2.57;;
5032;SDS011;2535;49.888;8.942;2023-06-22T09:55:48;39.83;;;2.80;;
5032;SDS011;2535;49.888;8.942;2023-06-22T09:58:14;38.57;;;2.47;;
5032;SDS011;2535;49.888;8.942;2023-06-22T10:00:39;41.67;;;2.60;;
5032;SDS011;2535;49.888;8.942;2023-06-22T10:03:06;38.63;;;2.27;;
5032;SDS011;2535;49.888;8.942;2023-06-22T10:05:32;42.90;;;3.43;;
5032;SDS011;2535;49.888;8.942;2023-06-22T10:07:58;41.30;;;3.33;;
5032;SDS011;2535;49.888;8.942;2023-06-22T10:10:24;39.77;;;2.07;;
5032;SDS011;2535;49.888;8.942;2023-06-22T10:12:56;41.00;;;2.77;;
5032;SDS011;2535;49.888;8.942;2023-06-22T10:15:22;37.77;;;1.93;;
5032;SDS011;2535;49.888;8.942;2023-06-22T10:17:48;37.50;;;1.97;;
5032;SDS011;2535;49.888;8.942;2023-06-22T10:20:15;37.20;;;2.27;;
5032;SDS011;2535;49.888;8.942;2023-06-22T10:22:43;40.03;;;2.80;;
5032;SDS011;2535;49.888;8.942;2023-06-22T10:25:10;38.27;;;2.50;;
5032;SDS011;2535;49.888;8.942;2023-06-22T10:27:36;40.37;;;3.13;;
5032;SDS011;2535;49.888;8.942;2023-06-22T10:30:05;40.70;;;3.40;;
5032;SDS011;2535;49.888;8.942;2023-06-22T10:32:31;37.63;;;2.33;;
5032;SDS011;2535;49.888;8.942;2023-06-22T10:34:57;38.27;;;2.63;;
5032;SDS011;2535;49.888;8.942;2023-06-22T10:37:23;37.50;;;2.53;;
5032;SDS011;2535;49.888;8.942;2023-06-22T10:39:49;38.43;;;2.57;;
5032;SDS011;2535;49.888;8.942;2023-06-22T10:42:15;37.57;;;3.40;;
5032;SDS011;2535;49.888;8.942;2023-06-22T10:44:41;37.97;;;2.50;;
5032;SDS011;2535;49.888;8.942;2023-06-22T10:47:09;38.40;;;2.50;;
5032;SDS011;2535;49.888;8.942;2023-06-22T10:49:36;36.63;;;2.27;;
5032;SDS011;2535;49.888;8.942;2023-06-22T10:52:02;38.53;;;2.80;;
5032;SDS011;2535;49.888;8.942;2023-06-22T10:54:28;37.90;;;2.70;;
5032;SDS011;2535;49.888;8.942;2023-06-22T10:56:54;38.07;;;2.83;;
5032;SDS011;2535;49.888;8.942;2023-06-22T10:59:20;40.20;;;2.63;;
5032;SDS011;2535;49.888;8.942;2023-06-22T11:01:48;38.67;;;2.87;;
5032;SDS011;2535;49.888;8.942;2023-06-22T11:04:14;36.57;;;2.23;;
5032;SDS011;2535;49.888;8.942;2023-06-22T11:06:42;38.60;;;3.40;;
5032;SDS011;2535;49.888;8.942;2023-06-22T11:09:08;36.73;;;2.60;;
5032;SDS011;2535;49.888;8.942;2023-06-22T11:11:34;37.70;;;2.80;;
5032;SDS011;2535;49.888;8.942;2023-06-22T11:14:00;37.70;;;3.30;;
5032;SDS011;2535;49.888;8.942;2023-06-22T11:16:26;36.50;;;2.57;;
5032;SDS011;2535;49.888;8.942;2023-06-22T11:18:52;36.47;;;2.20;;
5032;SDS011;2535;49.888;8.942;2023-06-22T11:21:18;39.63;;;3.70;;
5032;SDS011;2535;49.888;8.942;2023-06-22T11:23:44;35.17;;;1.80;;
5032;SDS011;2535;49.888;8.942;2023-06-22T11:26:11;37.07;;;2.80;;
5032;SDS011;2535;49.888;8.942;2023-06-22T11:28:37;37.37;;;2.67;;
5032;SDS011;2535;49.888;8.942;2023-06-22T11:31:03;35.97;;;2.20;;
5032;SDS011;2535;49.888;8.942;2023-06-22T11:33:29;37.00;;;2.70;;
5032;SDS011;2535;49.888;8.942;2023-06-22T11:35:55;35.33;;;2.40;;
5032;SDS011;2535;49.888;8.942;2023-06-22T11:38:22;37.80;;;2.90;;
5032;SDS011;2535;49.888;8.942;2023-06-22T11:40:48;38.47;;;2.53;;
5032;SDS011;2535;49.888;8.942;2023-06-22T11:43:14;35.50;;;2.60;;
5032;SDS011;2535;49.888;8.942;2023-06-22T11:45:40;36.17;;;2.83;;
5032;SDS011;2535;49.888;8.942;2023-06-22T11:48:06;35.50;;;2.27;;
5032;SDS011;2535;49.888;8.942;2023-06-22T11:50:32;36.07;;;2.73;;
5032;SDS011;2535;49.888;8.942;2023-06-22T11:53:01;35.87;;;2.33;;
5032;SDS011;2535;49.888;8.942;2023-06-22T11:55:27;35.57;;;2.47;;
5032;SDS011;2535;49.888;8.942;2023-06-22T11:57:56;35.77;;;2.70;;
5032;SDS011;2535;49.888;8.942;2023-06-22T12:00:25;34.37;;;2.00;;
5032;SDS011;2535;49.888;8.942;2023-06-22T12:02:51;33.60;;;1.80;;
5032;SDS011;2535;49.888;8.942;2023-06-22T12:05:18;36.40;;;3.07;;
5032;SDS011;2535;49.888;8.942;2023-06-22T12:07:46;37.27;;;3.37;;
5032;SDS011;2535;49.888;8.942;2023-06-22T12:10:12;33.97;;;2.80;;
5032;SDS011;2535;49.888;8.942;2023-06-22T12:12:38;34.97;;;2.93;;
5032;SDS011;2535;49.888;8.942;2023-06-22T12:15:04;33.33;;;2.47;;
5032;SDS011;2535;49.888;8.942;2023-06-22T12:17:30;32.90;;;2.00;;
5032;SDS011;2535;49.888;8.942;2023-06-22T12:19:56;33.00;;;2.23;;
5032;SDS011;2535;49.888;8.942;2023-06-22T12:22:22;35.57;;;2.77;;
5032;SDS011;2535;49.888;8.942;2023-06-22T12:24:48;35.07;;;3.20;;
5032;SDS011;2535;49.888;8.942;2023-06-22T12:27:14;33.90;;;2.53;;
5032;SDS011;2535;49.888;8.942;2023-06-22T12:29:42;35.27;;;2.50;;
5032;SDS011;2535;49.888;8.942;2023-06-22T12:32:08;33.40;;;2.03;;
5032;SDS011;2535;49.888;8.942;2023-06-22T12:34:34;35.87;;;2.57;;
5032;SDS011;2535;49.888;8.942;2023-06-22T12:37:00;33.93;;;2.60;;
5032;SDS011;2535;49.888;8.942;2023-06-22T12:39:27;36.97;;;3.10;;
5032;SDS011;2535;49.888;8.942;2023-06-22T12:41:53;35.10;;;3.23;;
5032;SDS011;2535;49.888;8.942;2023-06-22T12:44:18;35.53;;;3.13;;
5032;SDS011;2535;49.888;8.942;2023-06-22T12:46:44;33.10;;;2.50;;
5032;SDS011;2535;49.888;8.942;2023-06-22T12:49:10;34.57;;;2.30;;
5032;SDS011;2535;49.888;8.942;2023-06-22T12:51:39;34.57;;;2.50;;
5032;SDS011;2535;49.888;8.942;2023-06-22T12:54:06;34.60;;;2.90;;
5032;SDS011;2535;49.888;8.942;2023-06-22T12:56:32;33.77;;;2.20;;
5032;SDS011;2535;49.888;8.942;2023-06-22T12:58:58;33.60;;;2.40;;
5032;SDS011;2535;49.888;8.942;2023-06-22T13:01:26;34.00;;;2.33;;
5032;SDS011;2535;49.888;8.942;2023-06-22T13:03:52;35.00;;;2.90;;
5032;SDS011;2535;49.888;8.942;2023-06-22T13:06:18;33.00;;;2.43;;
5032;SDS011;2535;49.888;8.942;2023-06-22T13:08:44;33.57;;;2.40;;
5032;SDS011;2535;49.888;8.942;2023-06-22T13:11:10;33.83;;;2.53;;
5032;SDS011;2535;49.888;8.942;2023-06-22T13:13:36;33.50;;;2.13;;
5032;SDS011;2535;49.888;8.942;2023-06-22T13:16:02;32.40;;;2.10;;
5032;SDS011;2535;49.888;8.942;2023-06-22T13:18:28;34.27;;;2.93;;
5032;SDS011;2535;49.888;8.942;2023-06-22T13:20:54;32.70;;;2.27;;
5032;SDS011;2535;49.888;8.942;2023-06-22T13:23:20;32.00;;;2.60;;
5032;SDS011;2535;49.888;8.942;2023-06-22T13:25:47;31.43;;;2.03;;
5032;SDS011;2535;49.888;8.942;2023-06-22T13:28:13;31.90;;;2.00;;
5032;SDS011;2535;49.888;8.942;2023-06-22T13:30:40;31.50;;;2.50;;
5032;SDS011;2535;49.888;8.942;2023-06-22T13:33:06;31.90;;;2.17;;
5032;SDS011;2535;49.888;8.942;2023-06-22T13:35:33;33.20;;;2.10;;
5032;SDS011;2535;49.888;8.942;2023-06-22T13:38:00;31.20;;;2.60;;
5032;SDS011;2535;49.888;8.942;2023-06-22T13:40:26;30.73;;;2.30;;
5032;SDS011;2535;49.888;8.942;2023-06-22T13:42:52;30.90;;;2.10;;
5032;SDS011;2535;49.888;8.942;2023-06-22T13:45:18;30.20;;;1.83;;
5032;SDS011;2535;49.888;8.942;2023-06-22T13:47:45;29.73;;;1.80;;
5032;SDS011;2535;49.888;8.942;2023-06-22T13:50:11;30.30;;;2.13;;
5032;SDS011;2535;49.888;8.942;2023-06-22T13:52:40;29.80;;;1.77;;
5032;SDS011;2535;49.888;8.942;2023-06-22T13:55:06;28.67;;;1.77;;
5032;SDS011;2535;49.888;8.942;2023-06-22T13:57:32;29.40;;;1.83;;
5032;SDS011;2535;49.888;8.942;2023-06-22T13:59:59;28.73;;;1.57;;
5032;SDS011;2535;49.888;8.942;2023-06-22T14:02:28;29.13;;;2.10;;
5032;SDS011;2535;49.888;8.942;2023-06-22T14:04:54;28.83;;;1.80;;
5032;SDS011;2535;49.888;8.942;2023-06-22T14:07:20;28.33;;;1.93;;
5032;SDS011;2535;49.888;8.942;2023-06-22T14:09:46;29.97;;;2.37;;
5032;SDS011;2535;49.888;8.942;2023-06-22T14:12:12;29.33;;;2.13;;
5032;SDS011;2535;49.888;8.942;2023-06-22T14:14:38;27.87;;;1.40;;
5032;SDS011;2535;49.888;8.942;2023-06-22T14:17:04;29.00;;;1.60;;
5032;SDS011;2535;49.888;8.942;2023-06-22T14:19:30;30.63;;;2.37;;
5032;SDS011;2535;49.888;8.942;2023-06-22T14:21:56;29.40;;;1.73;;
5032;SDS011;2535;49.888;8.942;2023-06-22T14:24:23;27.87;;;1.70;;
5032;SDS011;2535;49.888;8.942;2023-06-22T14:26:49;31.30;;;1.80;;
5032;SDS011;2535;49.888;8.942;2023-06-22T14:29:15;27.70;;;2.10;;
5032;SDS011;2535;49.888;8.942;2023-06-22T14:31:44;27.50;;;1.80;;
5032;SDS011;2535;49.888;8.942;2023-06-22T14:34:10;28.13;;;2.27;;
5032;SDS011;2535;49.888;8.942;2023-06-22T14:36:36;25.97;;;1.57;;
5032;SDS011;2535;49.888;8.942;2023-06-22T14:39:02;27.90;;;2.20;;
5032;SDS011;2535;49.888;8.942;2023-06-22T14:41:29;28.27;;;2.57;;
5032;SDS011;2535;49.888;8.942;2023-06-22T14:43:55;28.90;;;1.90;;
5032;SDS011;2535;49.888;8.942;2023-06-22T14:46:22;26.97;;;1.73;;
5032;SDS011;2535;49.888;8.942;2023-06-22T14:48:48;27.90;;;2.37;;
5032;SDS011;2535;49.888;8.942;2023-06-22T14:51:14;27.17;;;1.90;;
5032;SDS011;2535;49.888;8.942;2023-06-22T14:53:41;27.17;;;1.70;;
5032;SDS011;2535;49.888;8.942;2023-06-22T14:56:07;29.60;;;2.23;;
5032;SDS011;2535;49.888;8.942;2023-06-22T14:58:33;27.37;;;1.60;;
5032;SDS011;2535;49.888;8.942;2023-06-22T15:01:00;28.70;;;1.70;;